createdAt,value
2018-05-31T00:41:38.558Z,21.47
2018-05-31T00:44:06.215Z,21.33
2018-05-31T00:46:33.783Z,21.40
2018-05-31T00:49:01.567Z,21.07
2018-05-31T00:51:31.976Z,21.77
2018-05-31T00:57:00.680Z,21.30
2018-05-31T00:59:36.135Z,21.67
2018-05-31T01:02:03.767Z,21.43
2018-05-31T01:04:31.395Z,21.43
2018-05-31T01:06:59.860Z,21.87
2018-05-31T01:09:28.965Z,23.43
2018-05-31T01:11:59.145Z,24.17
2018-05-31T01:14:27.430Z,24.93
2018-05-31T01:16:55.010Z,23.77
2018-05-31T01:19:22.782Z,24.63
2018-05-31T01:21:50.375Z,24.40
2018-05-31T01:24:18.063Z,23.77
2018-05-31T01:26:45.735Z,22.97
2018-05-31T01:29:13.311Z,24.37
2018-05-31T01:31:40.975Z,24.30
2018-05-31T01:34:08.660Z,22.57
2018-05-31T01:36:36.250Z,24.23
2018-05-31T01:39:03.836Z,24.40
2018-05-31T01:41:31.560Z,23.70
2018-05-31T01:43:59.315Z,22.80
2018-05-31T01:46:27.007Z,22.87
2018-05-31T01:48:54.583Z,22.67
2018-05-31T01:51:22.175Z,24.03
2018-05-31T01:53:49.715Z,23.83
2018-05-31T01:56:17.266Z,22.77
2018-05-31T01:58:44.879Z,22.43
2018-05-31T02:06:21.243Z,23.27
2018-05-31T02:11:22.106Z,22.53
2018-05-31T02:13:49.647Z,22.30
2018-05-31T02:16:17.199Z,22.67
2018-05-31T02:18:44.844Z,23.63
2018-05-31T02:23:45.405Z,22.17
2018-05-31T02:26:13.157Z,22.50
2018-05-31T02:28:40.687Z,22.60
2018-05-31T02:31:08.253Z,21.40
2018-05-31T02:33:37.764Z,21.90
2018-05-31T02:36:05.427Z,22.27
2018-05-31T02:38:32.960Z,22.60
2018-05-31T02:41:00.707Z,22.73
2018-05-31T02:43:28.481Z,22.70
2018-05-31T02:45:56.019Z,22.73
2018-05-31T02:48:23.578Z,22.37
2018-05-31T02:50:51.249Z,22.37
2018-05-31T02:53:18.919Z,23.20
2018-05-31T02:55:46.594Z,21.53
2018-05-31T02:58:14.180Z,21.40
2018-05-31T03:00:41.848Z,21.80
2018-05-31T03:03:09.396Z,22.93
2018-05-31T03:05:36.932Z,22.07
2018-05-31T03:08:04.591Z,22.73
2018-05-31T03:10:32.179Z,21.33
2018-05-31T03:13:00.723Z,21.47
2018-05-31T03:15:28.395Z,22.00
2018-05-31T03:17:56.102Z,22.53
2018-05-31T03:20:23.658Z,21.30
2018-05-31T03:22:51.179Z,22.27
2018-05-31T03:25:18.781Z,22.30
2018-05-31T03:27:46.415Z,21.90
2018-05-31T03:30:14.058Z,22.17
2018-05-31T03:32:41.714Z,22.57
2018-05-31T03:35:09.379Z,22.87
2018-05-31T03:37:36.947Z,22.00
2018-05-31T03:40:04.500Z,20.80
2018-05-31T03:42:32.091Z,21.17
2018-05-31T03:44:59.710Z,21.93
2018-05-31T03:47:27.341Z,20.37
2018-05-31T03:49:56.404Z,21.03
2018-05-31T03:52:24.124Z,21.53
2018-05-31T03:54:51.648Z,21.77
2018-05-31T03:57:19.203Z,21.93
2018-05-31T03:59:46.786Z,21.73
2018-05-31T04:02:14.415Z,20.67
2018-05-31T04:04:42.055Z,20.93
2018-05-31T04:07:09.666Z,21.20
2018-05-31T04:09:37.239Z,20.50
2018-05-31T04:12:04.778Z,21.00
2018-05-31T04:14:32.346Z,21.50
2018-05-31T04:16:59.874Z,21.47
2018-05-31T04:19:27.591Z,20.83
2018-05-31T04:21:55.316Z,20.83
2018-05-31T04:24:22.863Z,21.33
2018-05-31T04:26:50.463Z,21.93
2018-05-31T04:29:18.077Z,21.97
2018-05-31T04:31:45.622Z,21.57
2018-05-31T04:34:13.206Z,20.80
2018-05-31T04:36:40.871Z,21.73
2018-05-31T04:39:08.461Z,21.33
2018-05-31T04:41:36.151Z,22.17
2018-05-31T04:44:05.210Z,23.07
2018-05-31T04:46:32.784Z,22.53
2018-05-31T04:49:00.303Z,24.27
2018-05-31T04:51:27.853Z,25.20
2018-05-31T04:53:55.456Z,24.80
2018-05-31T04:56:23.091Z,25.93
2018-05-31T04:58:50.651Z,25.37
2018-05-31T05:01:18.441Z,25.53
2018-05-31T05:03:46.063Z,26.27
2018-05-31T05:06:13.622Z,27.53
2018-05-31T05:08:41.200Z,26.60
2018-05-31T05:11:08.810Z,25.63
2018-05-31T05:13:36.467Z,24.87
2018-05-31T05:16:04.063Z,25.57
2018-05-31T05:18:31.687Z,26.87
2018-05-31T05:20:59.254Z,26.30
2018-05-31T05:23:26.867Z,27.43
2018-05-31T05:25:54.383Z,28.30
2018-05-31T05:28:22.132Z,27.67
2018-05-31T05:30:49.854Z,26.93
2018-05-31T05:33:17.519Z,28.03
2018-05-31T05:35:46.865Z,29.03
2018-05-31T05:38:14.459Z,27.67
2018-05-31T05:40:42.015Z,27.60
2018-05-31T05:43:09.591Z,28.27
2018-05-31T05:45:37.207Z,27.87
2018-05-31T05:48:04.875Z,27.57
2018-05-31T05:50:32.543Z,26.97
2018-05-31T05:53:00.175Z,28.17
2018-05-31T05:55:27.723Z,26.40
2018-05-31T05:57:55.273Z,27.73
2018-05-31T06:00:22.827Z,26.40
2018-05-31T06:02:50.459Z,28.30
2018-05-31T06:05:18.083Z,26.00
2018-05-31T06:07:45.727Z,25.70
2018-05-31T06:10:13.431Z,26.17
2018-05-31T06:12:40.954Z,25.80
2018-05-31T06:15:08.582Z,25.97
2018-05-31T06:17:36.170Z,25.83
2018-05-31T06:20:06.851Z,25.67
2018-05-31T06:22:34.504Z,24.67
2018-05-31T06:25:02.128Z,24.33
2018-05-31T06:27:29.715Z,25.13
2018-05-31T06:29:57.354Z,24.10
2018-05-31T06:32:24.952Z,24.80
2018-05-31T06:34:52.582Z,24.63
2018-05-31T06:37:20.251Z,23.23
2018-05-31T06:39:48.587Z,22.40
2018-05-31T06:42:17.979Z,23.03
2018-05-31T06:44:46.241Z,22.63
2018-05-31T06:47:13.843Z,22.83
2018-05-31T06:49:41.411Z,21.73
2018-05-31T06:52:08.945Z,21.90
2018-05-31T06:54:37.480Z,21.30
2018-05-31T06:57:05.816Z,21.47
2018-05-31T06:59:34.384Z,21.43
2018-05-31T07:02:01.929Z,21.33
2018-05-31T07:07:22.782Z,19.97
2018-05-31T07:09:50.310Z,19.77
2018-05-31T07:12:17.970Z,20.83
2018-05-31T07:14:45.642Z,18.93
2018-05-31T07:17:17.607Z,19.73
2018-05-31T07:19:46.047Z,19.93
2018-05-31T07:22:13.607Z,17.87
2018-05-31T07:24:41.160Z,18.17
2018-05-31T07:27:08.694Z,18.57
2018-05-31T07:29:36.583Z,20.50
2018-05-31T07:32:04.731Z,18.97
2018-05-31T07:34:33.299Z,19.27
2018-05-31T07:37:03.920Z,19.53
2018-05-31T07:39:31.442Z,19.70
2018-05-31T07:42:00.116Z,18.93
2018-05-31T07:44:27.705Z,18.20
2018-05-31T07:46:55.355Z,17.53
2018-05-31T07:49:25.447Z,16.73
2018-05-31T07:51:54.055Z,17.57
2018-05-31T07:54:21.743Z,16.80
2018-05-31T07:56:49.307Z,15.80
2018-05-31T07:59:16.840Z,15.70
2018-05-31T08:01:44.486Z,15.53
2018-05-31T08:04:12.532Z,16.73
2018-05-31T08:06:40.979Z,15.80
2018-05-31T08:12:08.427Z,14.70
2018-05-31T08:14:49.262Z,13.37
2018-05-31T08:18:59.142Z,12.63
2018-05-31T08:30:35.407Z,9.10
2018-05-31T08:33:02.964Z,9.90
2018-05-31T08:35:31.350Z,8.77
2018-05-31T08:47:07.995Z,8.30
2018-05-31T08:49:35.555Z,7.73
2018-05-31T08:52:03.192Z,7.80
2018-05-31T09:03:39.223Z,9.10
2018-05-31T09:06:06.831Z,9.23
2018-05-31T09:08:34.592Z,8.20
2018-05-31T09:20:12.304Z,7.53
2018-05-31T09:22:39.938Z,8.00
2018-05-31T09:25:07.527Z,7.57
2018-05-31T09:27:35.144Z,7.60
2018-05-31T09:39:14.946Z,7.60
2018-05-31T09:41:42.558Z,6.37
2018-05-31T09:44:10.184Z,5.83
2018-05-31T09:55:47.241Z,5.27
2018-05-31T09:58:15.414Z,6.23
2018-05-31T10:00:43.078Z,6.10
2018-05-31T10:12:19.695Z,5.07
2018-05-31T10:14:47.361Z,5.40
2018-05-31T10:17:14.995Z,5.40
2018-05-31T10:28:50.946Z,4.50
2018-05-31T10:31:18.595Z,4.73
2018-05-31T10:33:46.655Z,5.33
2018-05-31T10:36:14.324Z,5.43
2018-05-31T10:44:21.251Z,5.07
2018-05-31T10:46:48.894Z,5.43
2018-05-31T10:49:19.349Z,5.20
2018-05-31T10:51:46.901Z,5.67
2018-05-31T11:03:25.751Z,4.90
2018-05-31T11:05:53.330Z,3.83
2018-05-31T11:08:20.896Z,4.10
2018-05-31T11:10:48.497Z,4.20
2018-05-31T11:22:20.325Z,5.10
2018-05-31T11:24:47.950Z,5.00
2018-05-31T11:27:15.588Z,4.43
2018-05-31T11:38:51.455Z,4.30
2018-05-31T11:41:19.075Z,4.77
2018-05-31T11:43:48.698Z,4.00
2018-05-31T11:55:13.648Z,4.73
2018-05-31T11:57:41.398Z,5.03
2018-05-31T12:00:09.680Z,4.90
2018-05-31T12:11:45.272Z,5.17
2018-05-31T12:14:12.847Z,6.20
2018-05-31T12:16:40.432Z,6.27
2018-05-31T12:30:57.070Z,4.43
2018-05-31T12:33:24.895Z,4.67
2018-05-31T12:35:52.794Z,4.40
2018-05-31T12:47:27.976Z,3.97
2018-05-31T12:49:55.631Z,4.07
2018-05-31T12:52:23.255Z,3.37
2018-05-31T13:03:59.809Z,3.73
2018-05-31T13:06:27.521Z,3.93
2018-05-31T13:08:55.220Z,3.70
2018-05-31T13:20:32.425Z,4.30
2018-05-31T13:23:02.370Z,3.70
2018-05-31T13:59:08.736Z,5.20
2018-05-31T14:47:25.921Z,5.87
2018-05-31T14:49:53.655Z,6.33
2018-05-31T17:21:53.236Z,11.20
2018-05-31T17:42:28.295Z,11.33
2018-05-31T17:53:41.260Z,13.07
2018-05-31T17:56:08.957Z,13.60
2018-05-31T17:58:36.592Z,13.57
2018-05-31T18:04:06.549Z,13.70
2018-05-31T18:06:49.137Z,13.70
2018-05-31T18:12:19.959Z,14.30
2018-05-31T18:14:47.563Z,15.37
2018-05-31T18:17:15.154Z,15.70
2018-05-31T18:19:42.921Z,15.57
2018-05-31T18:27:32.920Z,15.10
2018-05-31T18:30:00.466Z,14.63
2018-05-31T18:32:28.147Z,14.77
2018-05-31T18:34:55.772Z,15.33
2018-05-31T18:46:29.266Z,14.13
2018-05-31T18:48:56.916Z,14.87
2018-05-31T18:51:24.501Z,7.63
2018-05-31T19:02:38.425Z,2.53
2018-05-31T19:05:06.031Z,2.10
2018-05-31T19:07:33.724Z,2.00
2018-05-31T19:10:02.775Z,1.73
2018-05-31T19:21:20.833Z,1.83
2018-05-31T19:23:48.428Z,2.00
2018-05-31T19:26:16.606Z,2.07
2018-05-31T19:37:59.109Z,3.90
2018-05-31T19:40:33.789Z,3.90
2018-05-31T20:46:40.633Z,6.20
2018-05-31T20:49:08.352Z,6.63
2018-05-31T20:51:35.987Z,7.53
2018-05-31T21:03:13.246Z,8.97
2018-05-31T21:05:40.819Z,8.43
2018-05-31T21:19:51.273Z,8.60
2018-05-31T21:22:18.833Z,9.50
2018-05-31T21:24:46.471Z,8.80
2018-05-31T21:27:14.450Z,9.00
2018-05-31T21:38:51.331Z,9.30
2018-05-31T21:41:19.032Z,9.27
2018-05-31T21:43:46.639Z,10.53
2018-05-31T21:55:22.751Z,9.20
2018-05-31T21:57:50.366Z,9.23
2018-05-31T22:00:29.830Z,9.80
2018-05-31T22:12:06.407Z,9.43
2018-05-31T22:14:34.172Z,9.60
2018-05-31T22:17:01.729Z,8.70
2018-05-31T22:28:48.990Z,9.47
2018-05-31T22:31:16.617Z,8.60
2018-05-31T22:33:46.485Z,9.80
2018-05-31T22:45:26.369Z,8.63
2018-05-31T22:47:54.783Z,9.83
2018-05-31T22:50:22.415Z,9.10
2018-05-31T22:52:50.911Z,9.00
2018-05-31T22:57:58.214Z,8.77
2018-05-31T23:05:40.451Z,9.00
2018-05-31T23:08:08.090Z,9.60
2018-05-31T23:10:35.732Z,10.03
2018-05-31T23:21:10.232Z,9.57
2018-05-31T23:23:37.803Z,10.27
2018-05-31T23:26:05.374Z,9.63
2018-05-31T23:37:36.780Z,9.90
2018-05-31T23:40:04.369Z,9.93
2018-05-31T23:42:32.010Z,9.73
2018-05-31T23:44:59.648Z,10.50
2018-05-31T23:47:29.931Z,10.00
2018-05-31T23:55:36.078Z,11.00
2018-05-31T23:58:03.687Z,10.87
